Terminal Aerodrome Forecast
Issued by NWS

Home | Current Version | Previous Version | Text Only | Print | Product List | Glossary On
Versions: 1 2 3 4 5 6 7 8 9 10 11 12 13 14 15 16
000
FTAK31 PAJN 301700
TAFAGY
TAF
PAGY 301735Z 3018/3118 21006KT P6SM SCT200
     FM302100 21013KT P6SM VCSH BKN060 BKN120
     FM310400 21006KT P6SM SCT150
     FM311000 VRB03KT P6SM SCT150
     FM311500 00000KT P6SM SCT200
      AMD LTD TO CLD VIS AND WIND=

USA.gov is the U.S. government's official web portal to all federal, state and local government web resources and services.